createdAt,value
2023-04-23T00:01:06.984Z,8.11
2023-04-23T00:03:36.478Z,8.09
2023-04-23T00:06:08.093Z,7.82
2023-04-23T00:08:35.418Z,8.30
2023-04-23T00:11:02.450Z,8.44
2023-04-23T00:13:29.415Z,8.87
2023-04-23T00:15:56.305Z,9.08
2023-04-23T00:18:22.956Z,9.14
2023-04-23T00:20:49.635Z,8.00
2023-04-23T00:23:16.357Z,9.35
2023-04-23T00:25:43.156Z,9.32
2023-04-23T00:28:09.939Z,9.13
2023-04-23T00:30:36.540Z,9.59
2023-04-23T00:33:03.319Z,9.18
2023-04-23T00:35:30.014Z,9.08
2023-04-23T00:37:56.789Z,8.01
2023-04-23T00:40:23.714Z,8.57
2023-04-23T00:42:52.215Z,7.88
2023-04-23T00:45:19.097Z,8.60
2023-04-23T00:47:46.995Z,7.94
2023-04-23T00:50:13.754Z,8.49
2023-04-23T00:52:40.863Z,8.41
2023-04-23T00:55:09.008Z,8.16
2023-04-23T00:57:39.449Z,8.50
2023-04-23T01:00:07.987Z,7.43
2023-04-23T01:02:36.788Z,8.90
2023-04-23T01:05:05.113Z,8.05
2023-04-23T01:07:34.397Z,8.71
2023-04-23T01:10:01.219Z,9.16
2023-04-23T01:12:27.949Z,8.52
2023-04-23T01:14:54.712Z,9.48
2023-04-23T01:17:22.964Z,8.53
2023-04-23T01:19:49.899Z,9.18
2023-04-23T01:22:17.079Z,8.84
2023-04-23T01:24:43.954Z,9.17
2023-04-23T01:27:11.339Z,8.34
2023-04-23T01:29:39.052Z,8.56
2023-04-23T01:32:07.685Z,7.33
2023-04-23T01:34:38.712Z,8.04
2023-04-23T01:37:06.028Z,7.91
2023-04-23T01:39:33.500Z,8.62
2023-04-23T01:42:01.400Z,7.53
2023-04-23T01:44:28.355Z,8.57
2023-04-23T01:46:55.178Z,8.62
2023-04-23T01:49:21.829Z,8.70
2023-04-23T01:51:48.963Z,8.49
2023-04-23T01:54:15.566Z,8.65
2023-04-23T01:56:42.313Z,7.94
2023-04-23T01:59:08.977Z,8.23
2023-04-23T02:01:46.081Z,8.41
2023-04-23T02:04:14.654Z,9.06
2023-04-23T02:06:44.304Z,9.08
2023-04-23T02:09:11.890Z,9.20
2023-04-23T02:11:38.806Z,9.26
2023-04-23T02:14:06.674Z,9.12
2023-04-23T02:16:34.665Z,7.15
2023-04-23T02:19:01.966Z,8.69
2023-04-23T02:21:29.766Z,9.41
2023-04-23T02:23:56.460Z,9.22
2023-04-23T02:26:23.752Z,9.47
2023-04-23T02:28:50.986Z,9.35
2023-04-23T02:31:17.963Z,9.57
2023-04-23T02:33:44.848Z,9.59
2023-04-23T02:36:12.711Z,9.42
2023-04-23T02:38:44.694Z,8.93
2023-04-23T02:41:12.319Z,8.94
2023-04-23T02:43:38.999Z,9.54
2023-04-23T02:46:08.621Z,8.94
2023-04-23T02:48:41.703Z,9.43
2023-04-23T02:51:11.100Z,9.49
2023-04-23T02:53:37.861Z,9.41
2023-04-23T02:56:04.629Z,8.42
2023-04-23T02:58:32.025Z,8.74
2023-04-23T03:01:01.356Z,8.50
2023-04-23T03:03:32.173Z,8.19
2023-04-23T03:06:01.969Z,8.28
2023-04-23T03:08:28.750Z,8.33
2023-04-23T03:10:55.537Z,8.10
2023-04-23T03:13:22.565Z,7.94
2023-04-23T03:15:50.720Z,7.86
2023-04-23T03:18:18.019Z,7.56
2023-04-23T03:20:47.865Z,7.20
2023-04-23T03:23:14.891Z,7.90
2023-04-23T03:25:41.560Z,7.40
2023-04-23T03:28:08.285Z,6.04
2023-04-23T03:30:35.099Z,7.91
2023-04-23T03:33:02.741Z,7.36
2023-04-23T03:35:29.730Z,7.34
2023-04-23T03:37:59.136Z,7.08
2023-04-23T03:40:25.927Z,7.65
2023-04-23T03:42:58.030Z,7.76
2023-04-23T03:45:39.140Z,7.79
2023-04-23T03:48:05.898Z,7.94
2023-04-23T03:50:34.506Z,8.14
2023-04-23T03:53:11.369Z,7.58
2023-04-23T03:55:56.880Z,8.21
2023-04-23T03:58:24.466Z,8.41
2023-04-23T04:00:52.351Z,7.64
2023-04-23T04:03:19.261Z,7.60
2023-04-23T04:05:46.357Z,7.63
2023-04-23T04:08:13.231Z,5.65
2023-04-23T04:10:40.954Z,7.75
2023-04-23T04:13:07.712Z,8.15
2023-04-23T04:15:34.321Z,8.45
2023-04-23T04:18:01.297Z,8.35
2023-04-23T04:20:30.743Z,8.34
2023-04-23T04:22:57.428Z,8.44
2023-04-23T04:25:24.492Z,7.40
2023-04-23T04:27:51.250Z,8.24
2023-04-23T04:30:18.736Z,8.48
2023-04-23T04:32:46.301Z,8.17
2023-04-23T04:35:14.515Z,6.48
2023-04-23T04:37:41.936Z,7.91
2023-04-23T04:40:09.917Z,7.88
2023-04-23T04:42:37.312Z,7.30
2023-04-23T04:45:04.624Z,7.83
2023-04-23T04:47:32.755Z,7.57
2023-04-23T04:50:00.525Z,7.46
2023-04-23T04:52:27.718Z,7.36
2023-04-23T04:54:54.365Z,7.52
2023-04-23T04:57:22.870Z,6.76
2023-04-23T04:59:50.410Z,7.08
2023-04-23T05:02:17.161Z,7.64
2023-04-23T05:04:44.198Z,6.97
2023-04-23T05:07:11.166Z,6.69
2023-04-23T05:09:39.262Z,7.86
2023-04-23T05:12:07.446Z,6.70
2023-04-23T05:14:34.251Z,6.19
2023-04-23T05:17:01.180Z,8.36
2023-04-23T05:19:27.961Z,7.85
2023-04-23T05:21:54.711Z,7.97
2023-04-23T05:24:21.366Z,8.74
2023-04-23T05:26:48.654Z,8.81
2023-04-23T05:29:19.226Z,8.87
2023-04-23T05:31:46.683Z,8.74
2023-04-23T05:34:13.667Z,7.22
2023-04-23T05:36:51.468Z,9.09
2023-04-23T05:39:18.169Z,9.18
2023-04-23T05:41:53.424Z,8.39
2023-04-23T05:44:24.551Z,8.90
2023-04-23T05:46:52.351Z,9.04
2023-04-23T05:49:21.554Z,9.17
2023-04-23T05:51:51.844Z,8.97
2023-04-23T05:54:36.994Z,8.46
2023-04-23T05:57:05.163Z,9.06
2023-04-23T05:59:32.067Z,8.69
2023-04-23T06:01:58.744Z,8.19
2023-04-23T06:04:25.594Z,8.57
2023-04-23T06:06:56.077Z,8.35
2023-04-23T06:09:23.218Z,8.08
2023-04-23T06:11:52.194Z,7.42
2023-04-23T06:14:18.899Z,7.66
2023-04-23T06:16:45.633Z,7.68
2023-04-23T06:19:12.810Z,7.30
2023-04-23T06:21:42.560Z,7.36
2023-04-23T06:24:12.619Z,7.40
2023-04-23T06:26:39.420Z,7.40
2023-04-23T06:29:13.635Z,6.24
2023-04-23T06:31:51.152Z,7.28
2023-04-23T06:34:21.003Z,6.78
2023-04-23T06:36:47.832Z,6.46
2023-04-23T06:39:14.499Z,7.44
2023-04-23T06:41:41.164Z,6.93
2023-04-23T06:44:21.798Z,7.99
2023-04-23T06:46:54.390Z,6.87
2023-04-23T06:49:21.205Z,6.47
2023-04-23T06:51:48.304Z,7.97
2023-04-23T06:54:15.069Z,8.04
2023-04-23T06:56:42.691Z,7.95
2023-04-23T06:59:09.374Z,7.10
2023-04-23T07:01:43.966Z,7.82
2023-04-23T07:04:10.915Z,8.21
2023-04-23T07:06:43.154Z,8.23
2023-04-23T07:09:09.858Z,8.13
2023-04-23T07:11:37.080Z,7.91
2023-04-23T07:14:04.395Z,6.72
2023-04-23T07:16:33.716Z,7.97
2023-04-23T07:19:02.287Z,8.21
2023-04-23T07:21:29.277Z,8.01
2023-04-23T07:23:58.174Z,6.97
2023-04-23T07:26:25.470Z,7.96
2023-04-23T07:28:52.885Z,7.46
2023-04-23T07:31:23.971Z,7.79
2023-04-23T07:33:50.712Z,6.63
2023-04-23T07:36:17.280Z,7.83
2023-04-23T07:38:45.089Z,7.88
2023-04-23T07:41:11.832Z,7.58
2023-04-23T07:43:39.107Z,7.55
2023-04-23T07:46:07.600Z,7.60
2023-04-23T07:48:34.874Z,7.52
2023-04-23T07:51:02.418Z,7.43
2023-04-23T07:53:29.132Z,7.70
2023-04-23T07:55:56.604Z,7.15
2023-04-23T07:58:24.987Z,7.18
2023-04-23T08:00:52.118Z,7.17
2023-04-23T08:03:19.282Z,7.26
2023-04-23T08:05:46.315Z,7.23
2023-04-23T08:08:13.227Z,7.16
2023-04-23T08:10:40.430Z,6.51
2023-04-23T08:13:07.698Z,6.73
2023-04-23T08:15:34.403Z,6.99
2023-04-23T08:18:01.627Z,4.72
2023-04-23T08:20:28.445Z,7.01
2023-04-23T08:22:55.763Z,6.09
2023-04-23T08:25:22.690Z,6.90
2023-04-23T08:27:50.039Z,7.00
2023-04-23T08:30:16.880Z,6.90
2023-04-23T08:32:43.636Z,6.69
2023-04-23T08:35:10.517Z,7.02
2023-04-23T08:37:39.109Z,6.58
2023-04-23T08:40:07.782Z,7.40
2023-04-23T08:43:20.516Z,7.38
2023-04-23T08:45:49.311Z,7.49
2023-04-23T08:48:16.846Z,6.45
2023-04-23T08:50:44.883Z,7.71
2023-04-23T08:53:18.070Z,7.31
2023-04-23T08:55:45.912Z,6.61
2023-04-23T08:58:13.287Z,7.69
2023-04-23T09:00:40.884Z,7.50
2023-04-23T09:03:08.918Z,6.95
2023-04-23T09:05:40.366Z,7.51
2023-04-23T09:08:07.317Z,7.17
2023-04-23T09:10:37.438Z,7.77
2023-04-23T09:13:04.218Z,7.88
2023-04-23T09:15:31.403Z,7.61
2023-04-23T09:18:00.837Z,7.15
2023-04-23T09:20:27.705Z,7.75
2023-04-23T09:22:54.367Z,7.82
2023-04-23T09:25:23.430Z,6.65
2023-04-23T09:27:52.238Z,7.15
2023-04-23T09:30:20.059Z,7.68
2023-04-23T09:32:47.635Z,6.73
2023-04-23T09:35:17.106Z,7.38
2023-04-23T09:37:49.440Z,7.91
2023-04-23T09:40:20.121Z,7.75
2023-04-23T09:42:55.984Z,7.03
2023-04-23T09:45:25.698Z,6.88
2023-04-23T09:47:58.448Z,8.19
2023-04-23T09:50:36.995Z,8.34
2023-04-23T09:53:08.128Z,8.33
2023-04-23T09:55:38.816Z,8.35
2023-04-23T09:58:15.939Z,7.45
2023-04-23T10:00:43.258Z,8.08
2023-04-23T10:03:13.399Z,7.66
2023-04-23T10:05:59.664Z,8.29
2023-04-23T10:08:28.476Z,7.95
2023-04-23T10:11:09.626Z,8.54
2023-04-23T10:13:41.462Z,8.40
2023-04-23T10:16:21.696Z,8.73
2023-04-23T10:18:52.267Z,6.09
2023-04-23T10:21:20.245Z,7.35
2023-04-23T10:23:50.081Z,8.54
2023-04-23T10:26:20.321Z,7.88
2023-04-23T10:28:48.646Z,8.61
2023-04-23T10:31:16.000Z,8.69
2023-04-23T10:33:56.070Z,7.11
2023-04-23T10:36:27.710Z,8.42
2023-04-23T10:38:59.220Z,8.69
2023-04-23T10:41:35.138Z,7.63
2023-04-23T10:44:03.634Z,8.38
2023-04-23T10:46:36.447Z,8.05
2023-04-23T10:49:15.508Z,7.86
2023-04-23T10:54:19.641Z,7.63
2023-04-23T10:56:46.483Z,8.01
2023-04-23T10:59:20.681Z,7.90
2023-04-23T11:01:48.767Z,6.92
2023-04-23T11:04:23.430Z,8.36
2023-04-23T11:06:55.411Z,8.37
2023-04-23T11:09:46.856Z,8.31
2023-04-23T11:12:32.772Z,8.26
2023-04-23T11:15:00.344Z,8.35
2023-04-23T11:17:33.208Z,8.31
2023-04-23T11:20:20.342Z,7.70
2023-04-23T11:22:49.341Z,7.62
2023-04-23T11:25:30.698Z,8.39
2023-04-23T11:28:01.515Z,7.27
2023-04-23T11:30:32.152Z,7.22
2023-04-23T11:33:01.367Z,7.37
2023-04-23T11:35:29.573Z,6.87
2023-04-23T11:37:57.087Z,6.71
2023-04-23T11:40:24.350Z,7.59
2023-04-23T11:42:53.771Z,7.00
2023-04-23T11:45:23.847Z,6.60
2023-04-23T11:47:59.396Z,7.36
2023-04-23T11:50:33.172Z,6.66
2023-04-23T11:53:09.280Z,7.00
2023-04-23T11:55:36.477Z,6.88
2023-04-23T11:58:03.583Z,6.83
2023-04-23T12:00:30.357Z,7.84
2023-04-23T12:02:58.548Z,8.04
2023-04-23T12:05:30.535Z,6.41
2023-04-23T12:08:23.345Z,7.93
2023-04-23T12:10:54.980Z,8.07
2023-04-23T12:13:24.543Z,7.73
2023-04-23T12:16:00.564Z,7.46
2023-04-23T12:18:30.463Z,7.88
2023-04-23T12:21:05.775Z,6.95
2023-04-23T12:23:33.783Z,7.54
2023-04-23T12:26:00.422Z,7.88
2023-04-23T12:28:27.708Z,7.46
2023-04-23T12:31:01.129Z,7.69
2023-04-23T12:33:31.500Z,7.26
2023-04-23T12:35:58.306Z,7.13
2023-04-23T12:38:25.952Z,6.92
2023-04-23T12:40:59.615Z,7.36
2023-04-23T12:43:26.969Z,7.35
2023-04-23T12:45:56.977Z,7.38
2023-04-23T12:48:23.850Z,5.85
2023-04-23T12:50:50.724Z,6.51
2023-04-23T12:53:18.303Z,6.95
2023-04-23T12:55:46.010Z,6.85
2023-04-23T12:58:13.008Z,6.98
2023-04-23T13:00:39.667Z,7.13
2023-04-23T13:03:06.430Z,7.08
2023-04-23T13:05:33.182Z,7.10
2023-04-23T13:08:02.675Z,6.65
2023-04-23T13:10:30.927Z,6.31
2023-04-23T13:13:00.521Z,6.11
2023-04-23T13:15:27.343Z,6.74
2023-04-23T13:17:54.021Z,6.72
2023-04-23T13:20:21.334Z,6.62
2023-04-23T13:22:47.999Z,5.34
2023-04-23T13:25:14.754Z,6.77
2023-04-23T13:27:41.471Z,6.23
2023-04-23T13:30:08.805Z,5.77
2023-04-23T13:32:35.506Z,6.31
2023-04-23T13:35:05.072Z,6.49
2023-04-23T13:37:32.086Z,7.04
2023-04-23T13:39:58.804Z,7.14
2023-04-23T13:42:25.644Z,7.59
2023-04-23T13:44:52.586Z,6.68
2023-04-23T13:47:19.403Z,6.00
2023-04-23T13:49:46.042Z,7.92
2023-04-23T13:52:12.665Z,7.74
2023-04-23T13:54:39.936Z,8.08
2023-04-23T13:57:06.889Z,7.64
2023-04-23T13:59:33.577Z,7.96
2023-04-23T14:02:00.292Z,7.91
2023-04-23T14:04:27.233Z,8.28
2023-04-23T14:06:54.005Z,8.02
2023-04-23T14:09:22.397Z,7.63
2023-04-23T14:11:49.650Z,7.90
2023-04-23T14:14:16.683Z,7.62
2023-04-23T14:16:43.868Z,6.97
2023-04-23T14:19:14.149Z,8.39
2023-04-23T14:21:41.684Z,7.88
2023-04-23T14:24:22.814Z,7.69
2023-04-23T14:26:50.302Z,7.88
2023-04-23T14:29:23.028Z,8.52
2023-04-23T14:31:50.151Z,8.33
2023-04-23T14:34:16.806Z,7.35
2023-04-23T14:36:44.607Z,8.49
2023-04-23T14:39:20.045Z,8.10
2023-04-23T14:41:46.889Z,7.73
2023-04-23T14:44:13.757Z,8.06
2023-04-23T14:46:40.498Z,7.80
2023-04-23T14:49:07.396Z,7.86
2023-04-23T14:51:37.544Z,6.61
2023-04-23T14:54:04.996Z,7.46
2023-04-23T14:56:56.565Z,7.94
2023-04-23T14:59:23.728Z,7.45
2023-04-23T15:01:50.898Z,7.78
2023-04-23T15:04:17.865Z,6.80
2023-04-23T15:06:44.813Z,7.06
2023-04-23T15:09:13.723Z,7.30
2023-04-23T15:11:41.777Z,7.24
2023-04-23T15:14:23.229Z,7.83
2023-04-23T15:17:02.031Z,7.09
2023-04-23T15:19:31.046Z,7.27
2023-04-23T15:21:57.951Z,8.25
2023-04-23T15:24:24.808Z,6.63
2023-04-23T15:26:55.230Z,8.21
2023-04-23T15:29:25.044Z,8.27
2023-04-23T15:31:57.965Z,6.86
2023-04-23T15:34:25.017Z,7.68
2023-04-23T15:36:51.616Z,7.99
2023-04-23T15:39:18.300Z,7.78
2023-04-23T15:41:46.328Z,7.55
2023-04-23T15:44:13.541Z,7.35
2023-04-23T15:46:40.329Z,7.20
2023-04-23T15:49:09.254Z,5.46
2023-04-23T15:51:46.753Z,6.85
2023-04-23T15:54:15.127Z,6.11
2023-04-23T15:56:57.076Z,7.39
2023-04-23T15:59:30.869Z,6.57
2023-04-23T16:04:42.318Z,7.52
2023-04-23T16:07:12.040Z,7.58
2023-04-23T16:09:39.096Z,6.02
2023-04-23T16:12:07.043Z,7.91
2023-04-23T16:15:03.059Z,8.12
2023-04-23T16:17:33.976Z,7.42
2023-04-23T16:20:05.024Z,8.24
2023-04-23T16:22:31.943Z,7.93
2023-04-23T16:25:06.149Z,6.69
2023-04-23T16:27:39.259Z,7.94
2023-04-23T16:30:06.565Z,8.27
2023-04-23T16:32:35.053Z,8.45
2023-04-23T16:35:03.604Z,8.46
2023-04-23T16:37:30.845Z,7.21
2023-04-23T16:39:57.571Z,8.58
2023-04-23T16:42:24.278Z,8.73
2023-04-23T16:44:51.085Z,6.74
2023-04-23T16:47:18.139Z,8.98
2023-04-23T16:49:44.890Z,8.41
2023-04-23T16:52:11.572Z,7.39
2023-04-23T16:54:38.337Z,9.09
2023-04-23T16:57:06.982Z,8.26
2023-04-23T16:59:33.865Z,8.29
2023-04-23T17:02:00.889Z,8.73
2023-04-23T17:04:27.759Z,9.33
2023-04-23T17:06:54.649Z,9.08
2023-04-23T17:09:21.572Z,9.20
2023-04-23T17:11:48.301Z,9.17
2023-04-23T17:14:19.509Z,8.69
2023-04-23T17:16:46.834Z,8.67
2023-04-23T17:19:13.449Z,8.51
2023-04-23T17:21:40.390Z,8.21
2023-04-23T17:24:07.617Z,9.14
2023-04-23T17:26:34.537Z,8.57
2023-04-23T17:29:01.421Z,7.67
2023-04-23T17:31:28.798Z,9.36
2023-04-23T17:33:56.441Z,9.36
2023-04-23T17:36:23.274Z,8.82
2023-04-23T17:38:50.024Z,8.95
2023-04-23T17:41:17.698Z,9.50
2023-04-23T17:43:44.814Z,8.75
2023-04-23T17:46:11.572Z,8.42
2023-04-23T17:48:38.386Z,8.42
2023-04-23T17:51:05.114Z,7.64
2023-04-23T17:53:31.991Z,9.22
2023-04-23T17:56:02.773Z,9.58
2023-04-23T17:58:30.653Z,9.54
2023-04-23T18:00:57.517Z,9.46
2023-04-23T18:03:24.905Z,9.56
2023-04-23T18:05:52.210Z,8.86
2023-04-23T18:08:20.991Z,9.00
2023-04-23T18:10:47.950Z,9.48
2023-04-23T18:13:15.013Z,9.31
2023-04-23T18:15:42.496Z,9.18
2023-04-23T18:18:09.604Z,9.26
2023-04-23T18:20:38.590Z,8.67
2023-04-23T18:23:06.798Z,8.55
2023-04-23T18:25:33.721Z,8.79
2023-04-23T18:28:00.528Z,9.11
2023-04-23T18:30:27.458Z,9.04
2023-04-23T18:33:08.859Z,8.78
2023-04-23T18:35:35.841Z,8.78
2023-04-23T18:38:11.141Z,9.00
2023-04-23T18:40:37.937Z,8.41
2023-04-23T18:43:04.680Z,8.95
2023-04-23T18:45:31.515Z,8.14
2023-04-23T18:48:04.272Z,6.89
2023-04-23T18:50:38.365Z,8.62
2023-04-23T18:53:05.272Z,8.49
2023-04-23T18:55:31.948Z,8.05
2023-04-23T18:57:58.997Z,8.03
2023-04-23T19:00:25.855Z,8.70
2023-04-23T19:02:52.708Z,8.89
2023-04-23T19:05:19.970Z,8.93
2023-04-23T19:07:48.383Z,8.18
2023-04-23T19:10:16.426Z,7.93
2023-04-23T19:12:44.064Z,8.74
2023-04-23T19:15:11.569Z,8.64
2023-04-23T19:17:38.668Z,9.24
2023-04-23T19:20:09.351Z,8.95
2023-04-23T19:22:36.055Z,9.14
2023-04-23T19:25:02.827Z,8.80
2023-04-23T19:27:29.540Z,9.02
2023-04-23T19:29:56.697Z,8.99
2023-04-23T19:32:23.367Z,9.18
2023-04-23T19:34:50.009Z,9.25
2023-04-23T19:37:16.790Z,8.23
2023-04-23T19:39:43.750Z,9.12
2023-04-23T19:42:10.872Z,9.28
2023-04-23T19:44:40.127Z,9.30
2023-04-23T19:47:06.886Z,9.32
2023-04-23T19:49:33.651Z,9.20
2023-04-23T19:52:03.292Z,9.28
2023-04-23T19:54:30.035Z,8.81
2023-04-23T19:56:56.734Z,9.29
2023-04-23T19:59:23.857Z,9.07
2023-04-23T20:01:51.282Z,9.28
2023-04-23T20:04:18.010Z,9.26
2023-04-23T20:06:44.815Z,9.14
2023-04-23T20:09:18.212Z,9.08
2023-04-23T20:11:46.055Z,9.08
2023-04-23T20:14:13.617Z,9.07
2023-04-23T20:16:41.301Z,9.11
2023-04-23T20:19:11.160Z,8.76
2023-04-23T20:21:39.111Z,8.99
2023-04-23T20:24:07.623Z,8.03
2023-04-23T20:26:35.481Z,7.70
2023-04-23T20:29:02.694Z,8.58
2023-04-23T20:31:29.519Z,8.54
2023-04-23T20:33:56.490Z,8.62
2023-04-23T20:36:28.906Z,8.67
2023-04-23T20:38:59.008Z,8.70
2023-04-23T20:41:30.344Z,8.34
2023-04-23T20:43:58.885Z,7.86
2023-04-23T20:46:26.388Z,7.87
2023-04-23T20:48:55.187Z,8.68
2023-04-23T20:51:23.228Z,8.70
2023-04-23T20:53:51.413Z,8.58
2023-04-23T20:56:18.763Z,8.24
2023-04-23T20:58:46.169Z,8.73
2023-04-23T21:01:12.828Z,8.77
2023-04-23T21:03:40.868Z,8.83
2023-04-23T21:06:09.477Z,8.81
2023-04-23T21:08:38.935Z,8.68
2023-04-23T21:11:09.980Z,8.57
2023-04-23T21:13:37.961Z,8.51
2023-04-23T21:16:04.733Z,6.58
2023-04-23T21:18:31.755Z,8.58
2023-04-23T21:20:58.408Z,8.62
2023-04-23T21:23:25.280Z,8.69
2023-04-23T21:25:52.259Z,7.79
2023-04-23T21:28:19.467Z,8.34
2023-04-23T21:30:50.863Z,8.48
2023-04-23T21:33:19.265Z,8.32
2023-04-23T21:35:46.532Z,8.34
2023-04-23T21:38:13.372Z,8.06
2023-04-23T21:40:40.617Z,8.46
2023-04-23T21:43:07.953Z,8.40
2023-04-23T21:45:34.662Z,8.67
2023-04-23T21:48:02.030Z,8.63
2023-04-23T21:50:31.135Z,8.68
2023-04-23T21:52:58.542Z,8.66
2023-04-23T21:55:27.009Z,8.80
2023-04-23T21:57:56.431Z,8.83
2023-04-23T22:00:28.264Z,8.62
2023-04-23T22:02:55.915Z,8.25
2023-04-23T22:05:24.065Z,8.35
2023-04-23T22:07:55.383Z,8.09
2023-04-23T22:10:23.841Z,7.87
2023-04-23T22:12:50.860Z,7.66
2023-04-23T22:15:19.093Z,8.04
2023-04-23T22:17:50.310Z,8.08
2023-04-23T22:20:19.163Z,8.20
2023-04-23T22:22:46.420Z,8.12
2023-04-23T22:25:13.533Z,4.76
2023-04-23T22:27:41.636Z,6.71
2023-04-23T22:30:10.485Z,7.17
2023-04-23T22:32:38.516Z,7.38
2023-04-23T22:35:07.206Z,7.47
2023-04-23T22:37:35.256Z,7.62
2023-04-23T22:40:04.004Z,7.47
2023-04-23T22:42:31.146Z,4.91
2023-04-23T22:44:58.104Z,7.33
2023-04-23T22:47:25.164Z,5.57
2023-04-23T22:49:51.999Z,7.37
2023-04-23T22:52:19.049Z,7.56
2023-04-23T22:54:46.504Z,7.65
2023-04-23T22:57:13.193Z,7.39
2023-04-23T22:59:40.182Z,7.91
2023-04-23T23:02:07.716Z,7.29
2023-04-23T23:04:37.743Z,7.40
2023-04-23T23:07:08.489Z,8.00
2023-04-23T23:09:35.486Z,7.39
2023-04-23T23:12:03.640Z,8.10
2023-04-23T23:14:31.747Z,7.67
2023-04-23T23:16:58.863Z,7.95
2023-04-23T23:19:31.006Z,7.42
2023-04-23T23:21:57.690Z,7.38
2023-04-23T23:24:24.427Z,7.72
2023-04-23T23:26:51.179Z,7.59
2023-04-23T23:29:17.943Z,7.47
2023-04-23T23:31:44.967Z,7.51
2023-04-23T23:34:12.054Z,7.17
2023-04-23T23:36:38.725Z,6.77
2023-04-23T23:39:06.649Z,6.69
2023-04-23T23:41:33.650Z,6.94
2023-04-23T23:44:00.275Z,7.23
2023-04-23T23:46:27.121Z,6.08
2023-04-23T23:48:54.452Z,7.41
2023-04-23T23:51:21.318Z,7.32
2023-04-23T23:53:48.000Z,7.41
2023-04-23T23:56:14.703Z,7.31
2023-04-23T23:58:41.297Z,7.23
